Coxs Mills, West Virginia
Current Conditions -  °F | °C
As of 1:15 PM on Friday 28 Nov 2014 (Local Time) from KW22 Reporting Station
Overcast Overcast  
Wind Chill: 18°   Ceiling: 3200
Heat Index: 25°   Visibility: 10mi
Dew Point: 16°   Wind: 6mph
Humidity: 69%   Direction: 220°SW
Pressure: 30.27"   Gusts: 14mph
Location:  39.04°N, 80.83°W
Report Text: KW22 281815Z AUTO 22005G12KT 10SM FEW023 OVC032 M04/M09 A3027 RMK AO2
Loading
Personal Weather Stations






























Interactive Weather Map New forecast layout! Learn more

10-Day Weather Forecast

Advertisements
Track Severe Weather on mobile